sensor_id;sensor_type;location;lat;lon;timestamp;P1;durP1;ratioP1;P2;durP2;ratioP2
65706;SDS011;52423;43.512;5.220;2022-08-30T00:00:50;5.35;;;3.30;;
65706;SDS011;52423;43.512;5.220;2022-08-30T00:03:30;8.35;;;3.13;;
65706;SDS011;52423;43.512;5.220;2022-08-30T00:05:58;4.07;;;3.28;;
65706;SDS011;52423;43.512;5.220;2022-08-30T00:08:24;6.35;;;4.03;;
65706;SDS011;52423;43.512;5.220;2022-08-30T00:10:49;6.05;;;3.25;;
65706;SDS011;52423;43.512;5.220;2022-08-30T00:13:16;4.75;;;3.40;;
65706;SDS011;52423;43.512;5.220;2022-08-30T00:15:43;3.83;;;3.42;;
65706;SDS011;52423;43.512;5.220;2022-08-30T00:18:09;4.85;;;3.22;;
65706;SDS011;52423;43.512;5.220;2022-08-30T00:20:35;4.47;;;3.35;;
65706;SDS011;52423;43.512;5.220;2022-08-30T00:23:02;5.47;;;3.20;;
65706;SDS011;52423;43.512;5.220;2022-08-30T00:25:28;4.15;;;3.30;;
65706;SDS011;52423;43.512;5.220;2022-08-30T00:27:54;9.88;;;4.07;;
65706;SDS011;52423;43.512;5.220;2022-08-30T00:30:20;8.45;;;4.22;;
65706;SDS011;52423;43.512;5.220;2022-08-30T00:32:47;6.03;;;3.50;;
65706;SDS011;52423;43.512;5.220;2022-08-30T00:35:14;4.60;;;3.75;;
65706;SDS011;52423;43.512;5.220;2022-08-30T00:37:42;7.65;;;3.42;;
65706;SDS011;52423;43.512;5.220;2022-08-30T00:40:09;4.43;;;3.60;;
65706;SDS011;52423;43.512;5.220;2022-08-30T00:42:36;5.80;;;3.47;;
65706;SDS011;52423;43.512;5.220;2022-08-30T00:45:16;11.65;;;3.75;;
65706;SDS011;52423;43.512;5.220;2022-08-30T00:47:48;6.15;;;3.88;;
65706;SDS011;52423;43.512;5.220;2022-08-30T00:50:16;7.53;;;3.45;;
65706;SDS011;52423;43.512;5.220;2022-08-30T00:52:45;6.45;;;3.15;;
65706;SDS011;52423;43.512;5.220;2022-08-30T00:55:14;8.23;;;3.63;;
65706;SDS011;52423;43.512;5.220;2022-08-30T00:57:42;5.82;;;3.42;;
65706;SDS011;52423;43.512;5.220;2022-08-30T01:00:10;3.17;;;2.88;;
65706;SDS011;52423;43.512;5.220;2022-08-30T01:02:37;3.60;;;2.92;;
65706;SDS011;52423;43.512;5.220;2022-08-30T01:05:03;4.60;;;3.33;;
65706;SDS011;52423;43.512;5.220;2022-08-30T01:07:32;5.55;;;3.83;;
65706;SDS011;52423;43.512;5.220;2022-08-30T01:09:59;7.80;;;3.10;;
65706;SDS011;52423;43.512;5.220;2022-08-30T01:12:27;7.05;;;3.33;;
65706;SDS011;52423;43.512;5.220;2022-08-30T01:14:54;5.72;;;2.90;;
65706;SDS011;52423;43.512;5.220;2022-08-30T01:17:20;3.42;;;3.15;;
65706;SDS011;52423;43.512;5.220;2022-08-30T01:19:52;6.43;;;3.00;;
65706;SDS011;52423;43.512;5.220;2022-08-30T01:25:13;4.57;;;2.53;;
65706;SDS011;52423;43.512;5.220;2022-08-30T01:27:43;4.85;;;2.80;;
65706;SDS011;52423;43.512;5.220;2022-08-30T01:30:12;3.75;;;2.80;;
65706;SDS011;52423;43.512;5.220;2022-08-30T01:32:40;3.13;;;2.53;;
65706;SDS011;52423;43.512;5.220;2022-08-30T01:35:12;3.50;;;2.70;;
65706;SDS011;52423;43.512;5.220;2022-08-30T01:40:08;6.38;;;2.80;;
65706;SDS011;52423;43.512;5.220;2022-08-30T01:42:35;4.65;;;2.50;;
65706;SDS011;52423;43.512;5.220;2022-08-30T01:45:01;7.22;;;2.60;;
65706;SDS011;52423;43.512;5.220;2022-08-30T01:47:29;6.45;;;3.00;;
65706;SDS011;52423;43.512;5.220;2022-08-30T01:49:54;11.38;;;3.20;;
65706;SDS011;52423;43.512;5.220;2022-08-30T01:52:20;7.93;;;3.35;;
65706;SDS011;52423;43.512;5.220;2022-08-30T01:54:46;5.13;;;3.05;;
65706;SDS011;52423;43.512;5.220;2022-08-30T01:57:13;3.92;;;3.13;;
65706;SDS011;52423;43.512;5.220;2022-08-30T01:59:42;3.15;;;2.95;;
65706;SDS011;52423;43.512;5.220;2022-08-30T02:02:12;8.07;;;2.88;;
65706;SDS011;52423;43.512;5.220;2022-08-30T02:04:40;8.23;;;3.03;;
65706;SDS011;52423;43.512;5.220;2022-08-30T02:07:06;4.68;;;3.00;;
65706;SDS011;52423;43.512;5.220;2022-08-30T02:09:32;3.80;;;3.00;;
65706;SDS011;52423;43.512;5.220;2022-08-30T02:11:58;6.22;;;3.15;;
65706;SDS011;52423;43.512;5.220;2022-08-30T02:14:24;3.42;;;3.03;;
65706;SDS011;52423;43.512;5.220;2022-08-30T02:16:50;4.47;;;2.97;;
65706;SDS011;52423;43.512;5.220;2022-08-30T02:19:15;5.78;;;3.38;;
65706;SDS011;52423;43.512;5.220;2022-08-30T02:21:42;5.65;;;3.35;;
65706;SDS011;52423;43.512;5.220;2022-08-30T02:24:08;4.38;;;2.90;;
65706;SDS011;52423;43.512;5.220;2022-08-30T02:26:33;8.13;;;3.33;;
65706;SDS011;52423;43.512;5.220;2022-08-30T02:29:21;6.28;;;3.55;;
65706;SDS011;52423;43.512;5.220;2022-08-30T02:32:07;4.88;;;3.38;;
65706;SDS011;52423;43.512;5.220;2022-08-30T02:34:32;4.18;;;3.33;;
65706;SDS011;52423;43.512;5.220;2022-08-30T02:36:58;7.93;;;3.63;;
65706;SDS011;52423;43.512;5.220;2022-08-30T02:39:25;5.07;;;3.05;;
65706;SDS011;52423;43.512;5.220;2022-08-30T02:41:50;6.05;;;3.28;;
65706;SDS011;52423;43.512;5.220;2022-08-30T02:44:16;3.88;;;2.88;;
65706;SDS011;52423;43.512;5.220;2022-08-30T02:46:42;5.45;;;3.08;;
65706;SDS011;52423;43.512;5.220;2022-08-30T02:49:08;7.80;;;3.08;;
65706;SDS011;52423;43.512;5.220;2022-08-30T02:51:34;6.28;;;3.40;;
65706;SDS011;52423;43.512;5.220;2022-08-30T02:53:59;5.70;;;3.40;;
65706;SDS011;52423;43.512;5.220;2022-08-30T02:56:25;3.22;;;2.88;;
65706;SDS011;52423;43.512;5.220;2022-08-30T02:58:53;4.00;;;3.53;;
65706;SDS011;52423;43.512;5.220;2022-08-30T03:01:19;5.47;;;2.88;;
65706;SDS011;52423;43.512;5.220;2022-08-30T03:03:45;3.88;;;2.95;;
65706;SDS011;52423;43.512;5.220;2022-08-30T03:06:11;5.93;;;3.50;;
65706;SDS011;52423;43.512;5.220;2022-08-30T03:08:37;2.95;;;2.63;;
65706;SDS011;52423;43.512;5.220;2022-08-30T03:11:03;6.07;;;3.10;;
65706;SDS011;52423;43.512;5.220;2022-08-30T03:13:30;5.18;;;3.17;;
65706;SDS011;52423;43.512;5.220;2022-08-30T03:15:56;3.78;;;2.85;;
65706;SDS011;52423;43.512;5.220;2022-08-30T03:18:22;7.45;;;3.40;;
65706;SDS011;52423;43.512;5.220;2022-08-30T03:20:48;6.90;;;3.03;;
65706;SDS011;52423;43.512;5.220;2022-08-30T03:23:15;4.90;;;3.33;;
65706;SDS011;52423;43.512;5.220;2022-08-30T03:25:42;4.15;;;2.65;;
65706;SDS011;52423;43.512;5.220;2022-08-30T03:28:07;4.22;;;3.10;;
65706;SDS011;52423;43.512;5.220;2022-08-30T03:30:33;3.35;;;2.92;;
65706;SDS011;52423;43.512;5.220;2022-08-30T03:32:59;4.60;;;3.10;;
65706;SDS011;52423;43.512;5.220;2022-08-30T03:35:26;7.75;;;2.78;;
65706;SDS011;52423;43.512;5.220;2022-08-30T03:37:52;5.45;;;3.22;;
65706;SDS011;52423;43.512;5.220;2022-08-30T03:40:18;6.30;;;3.13;;
65706;SDS011;52423;43.512;5.220;2022-08-30T03:42:46;5.20;;;2.60;;
65706;SDS011;52423;43.512;5.220;2022-08-30T03:45:13;3.60;;;3.30;;
65706;SDS011;52423;43.512;5.220;2022-08-30T03:47:41;5.70;;;3.10;;
65706;SDS011;52423;43.512;5.220;2022-08-30T03:50:08;3.80;;;3.38;;
65706;SDS011;52423;43.512;5.220;2022-08-30T03:52:35;5.18;;;3.38;;
65706;SDS011;52423;43.512;5.220;2022-08-30T03:55:01;5.88;;;3.42;;
65706;SDS011;52423;43.512;5.220;2022-08-30T03:57:27;9.02;;;3.50;;
65706;SDS011;52423;43.512;5.220;2022-08-30T03:59:53;4.80;;;3.22;;
65706;SDS011;52423;43.512;5.220;2022-08-30T04:02:19;3.28;;;2.97;;
65706;SDS011;52423;43.512;5.220;2022-08-30T04:04:45;7.32;;;3.80;;
65706;SDS011;52423;43.512;5.220;2022-08-30T04:07:11;5.63;;;3.55;;
65706;SDS011;52423;43.512;5.220;2022-08-30T04:09:37;5.63;;;3.70;;
65706;SDS011;52423;43.512;5.220;2022-08-30T04:12:02;5.30;;;3.53;;
65706;SDS011;52423;43.512;5.220;2022-08-30T04:14:28;8.25;;;3.90;;
65706;SDS011;52423;43.512;5.220;2022-08-30T04:16:54;4.85;;;3.35;;
65706;SDS011;52423;43.512;5.220;2022-08-30T04:19:20;8.40;;;3.72;;
65706;SDS011;52423;43.512;5.220;2022-08-30T04:21:45;6.30;;;3.45;;
65706;SDS011;52423;43.512;5.220;2022-08-30T04:24:11;5.85;;;3.70;;
65706;SDS011;52423;43.512;5.220;2022-08-30T04:26:37;7.88;;;4.00;;
65706;SDS011;52423;43.512;5.220;2022-08-30T04:29:03;8.82;;;3.72;;
65706;SDS011;52423;43.512;5.220;2022-08-30T04:31:29;4.03;;;3.40;;
65706;SDS011;52423;43.512;5.220;2022-08-30T04:33:55;4.95;;;2.97;;
65706;SDS011;52423;43.512;5.220;2022-08-30T04:36:21;6.32;;;3.20;;
65706;SDS011;52423;43.512;5.220;2022-08-30T04:38:47;5.55;;;3.20;;
65706;SDS011;52423;43.512;5.220;2022-08-30T04:41:15;7.85;;;3.05;;
65706;SDS011;52423;43.512;5.220;2022-08-30T04:43:43;4.93;;;3.17;;
65706;SDS011;52423;43.512;5.220;2022-08-30T04:46:09;6.90;;;3.50;;
65706;SDS011;52423;43.512;5.220;2022-08-30T04:48:36;4.70;;;2.80;;
65706;SDS011;52423;43.512;5.220;2022-08-30T04:51:03;4.13;;;3.08;;
65706;SDS011;52423;43.512;5.220;2022-08-30T04:53:30;3.50;;;2.85;;
65706;SDS011;52423;43.512;5.220;2022-08-30T04:55:56;3.85;;;2.85;;
65706;SDS011;52423;43.512;5.220;2022-08-30T04:58:22;4.93;;;3.00;;
65706;SDS011;52423;43.512;5.220;2022-08-30T05:00:48;3.10;;;2.55;;
65706;SDS011;52423;43.512;5.220;2022-08-30T05:03:14;8.52;;;2.80;;
65706;SDS011;52423;43.512;5.220;2022-08-30T05:05:48;5.20;;;3.10;;
65706;SDS011;52423;43.512;5.220;2022-08-30T05:08:15;3.90;;;2.70;;
65706;SDS011;52423;43.512;5.220;2022-08-30T05:10:44;4.72;;;2.85;;
65706;SDS011;52423;43.512;5.220;2022-08-30T05:13:12;4.97;;;2.83;;
65706;SDS011;52423;43.512;5.220;2022-08-30T05:15:39;4.03;;;2.83;;
65706;SDS011;52423;43.512;5.220;2022-08-30T05:18:05;8.77;;;3.10;;
65706;SDS011;52423;43.512;5.220;2022-08-30T05:20:32;6.35;;;2.92;;
65706;SDS011;52423;43.512;5.220;2022-08-30T05:22:59;2.75;;;2.53;;
65706;SDS011;52423;43.512;5.220;2022-08-30T05:25:26;5.78;;;2.50;;
65706;SDS011;52423;43.512;5.220;2022-08-30T05:27:54;4.43;;;2.60;;
65706;SDS011;52423;43.512;5.220;2022-08-30T05:30:21;7.45;;;3.15;;
65706;SDS011;52423;43.512;5.220;2022-08-30T05:32:47;4.78;;;2.35;;
65706;SDS011;52423;43.512;5.220;2022-08-30T05:35:14;6.47;;;2.50;;
65706;SDS011;52423;43.512;5.220;2022-08-30T05:37:41;5.10;;;2.70;;
65706;SDS011;52423;43.512;5.220;2022-08-30T05:40:08;6.05;;;2.80;;
65706;SDS011;52423;43.512;5.220;2022-08-30T05:42:35;3.17;;;2.75;;
65706;SDS011;52423;43.512;5.220;2022-08-30T05:45:03;3.33;;;2.35;;
65706;SDS011;52423;43.512;5.220;2022-08-30T05:47:30;5.43;;;2.60;;
65706;SDS011;52423;43.512;5.220;2022-08-30T05:49:55;5.68;;;2.28;;
65706;SDS011;52423;43.512;5.220;2022-08-30T05:52:21;6.88;;;2.30;;
65706;SDS011;52423;43.512;5.220;2022-08-30T05:54:51;4.13;;;2.65;;
65706;SDS011;52423;43.512;5.220;2022-08-30T05:57:18;6.40;;;2.65;;
65706;SDS011;52423;43.512;5.220;2022-08-30T05:59:44;3.40;;;2.70;;
65706;SDS011;52423;43.512;5.220;2022-08-30T06:02:10;5.00;;;2.47;;
65706;SDS011;52423;43.512;5.220;2022-08-30T06:04:36;4.82;;;2.50;;
65706;SDS011;52423;43.512;5.220;2022-08-30T06:07:02;4.85;;;2.40;;
65706;SDS011;52423;43.512;5.220;2022-08-30T06:09:28;5.15;;;2.63;;
65706;SDS011;52423;43.512;5.220;2022-08-30T06:11:54;4.10;;;2.33;;
65706;SDS011;52423;43.512;5.220;2022-08-30T06:14:20;6.68;;;2.35;;
65706;SDS011;52423;43.512;5.220;2022-08-30T06:16:47;7.25;;;2.53;;
65706;SDS011;52423;43.512;5.220;2022-08-30T06:19:13;4.82;;;2.83;;
65706;SDS011;52423;43.512;5.220;2022-08-30T06:21:40;2.78;;;1.98;;
65706;SDS011;52423;43.512;5.220;2022-08-30T06:24:08;9.13;;;2.40;;
65706;SDS011;52423;43.512;5.220;2022-08-30T06:26:36;6.93;;;2.50;;
65706;SDS011;52423;43.512;5.220;2022-08-30T06:29:04;3.83;;;2.22;;
65706;SDS011;52423;43.512;5.220;2022-08-30T06:31:30;5.35;;;2.20;;
65706;SDS011;52423;43.512;5.220;2022-08-30T06:33:56;6.53;;;2.08;;
65706;SDS011;52423;43.512;5.220;2022-08-30T06:36:23;9.45;;;2.47;;
65706;SDS011;52423;43.512;5.220;2022-08-30T06:38:50;10.70;;;2.50;;
65706;SDS011;52423;43.512;5.220;2022-08-30T06:41:20;8.93;;;2.35;;
65706;SDS011;52423;43.512;5.220;2022-08-30T06:43:48;7.68;;;2.10;;
65706;SDS011;52423;43.512;5.220;2022-08-30T06:46:24;9.13;;;2.40;;
65706;SDS011;52423;43.512;5.220;2022-08-30T06:48:52;7.00;;;2.30;;
65706;SDS011;52423;43.512;5.220;2022-08-30T06:51:22;5.30;;;2.20;;
65706;SDS011;52423;43.512;5.220;2022-08-30T06:53:50;5.47;;;2.47;;
65706;SDS011;52423;43.512;5.220;2022-08-30T06:56:16;6.60;;;2.75;;
65706;SDS011;52423;43.512;5.220;2022-08-30T06:58:43;4.88;;;2.40;;
65706;SDS011;52423;43.512;5.220;2022-08-30T07:01:10;7.22;;;2.33;;
65706;SDS011;52423;43.512;5.220;2022-08-30T07:03:38;5.97;;;2.20;;
65706;SDS011;52423;43.512;5.220;2022-08-30T07:06:03;5.95;;;2.22;;
65706;SDS011;52423;43.512;5.220;2022-08-30T07:08:29;7.22;;;2.75;;
65706;SDS011;52423;43.512;5.220;2022-08-30T07:10:55;4.95;;;2.50;;
65706;SDS011;52423;43.512;5.220;2022-08-30T07:13:22;9.82;;;2.72;;
65706;SDS011;52423;43.512;5.220;2022-08-30T07:15:48;7.93;;;2.63;;
65706;SDS011;52423;43.512;5.220;2022-08-30T07:18:15;6.53;;;2.05;;
65706;SDS011;52423;43.512;5.220;2022-08-30T07:21:05;7.47;;;2.30;;
65706;SDS011;52423;43.512;5.220;2022-08-30T07:23:32;6.85;;;2.70;;
65706;SDS011;52423;43.512;5.220;2022-08-30T07:26:01;10.93;;;2.38;;
65706;SDS011;52423;43.512;5.220;2022-08-30T07:28:31;10.98;;;2.22;;
65706;SDS011;52423;43.512;5.220;2022-08-30T07:30:57;7.57;;;2.50;;
65706;SDS011;52423;43.512;5.220;2022-08-30T07:33:22;9.25;;;2.60;;
65706;SDS011;52423;43.512;5.220;2022-08-30T07:35:48;6.85;;;2.67;;
65706;SDS011;52423;43.512;5.220;2022-08-30T07:38:14;5.68;;;2.30;;
65706;SDS011;52423;43.512;5.220;2022-08-30T07:40:39;6.55;;;2.28;;
65706;SDS011;52423;43.512;5.220;2022-08-30T07:43:05;5.97;;;2.80;;
65706;SDS011;52423;43.512;5.220;2022-08-30T07:45:31;8.07;;;1.88;;
65706;SDS011;52423;43.512;5.220;2022-08-30T07:47:57;15.00;;;2.35;;
65706;SDS011;52423;43.512;5.220;2022-08-30T07:50:23;8.68;;;2.45;;
65706;SDS011;52423;43.512;5.220;2022-08-30T07:52:49;5.70;;;2.28;;
65706;SDS011;52423;43.512;5.220;2022-08-30T07:55:15;8.43;;;2.95;;
65706;SDS011;52423;43.512;5.220;2022-08-30T07:57:41;10.60;;;2.72;;
65706;SDS011;52423;43.512;5.220;2022-08-30T08:00:07;5.80;;;2.50;;
65706;SDS011;52423;43.512;5.220;2022-08-30T08:02:33;3.92;;;2.40;;
65706;SDS011;52423;43.512;5.220;2022-08-30T08:05:02;4.70;;;2.10;;
65706;SDS011;52423;43.512;5.220;2022-08-30T08:07:30;5.72;;;2.08;;
65706;SDS011;52423;43.512;5.220;2022-08-30T08:09:56;4.43;;;2.92;;
65706;SDS011;52423;43.512;5.220;2022-08-30T08:12:22;7.68;;;2.80;;
65706;SDS011;52423;43.512;5.220;2022-08-30T08:14:48;8.35;;;2.58;;
65706;SDS011;52423;43.512;5.220;2022-08-30T08:17:14;9.63;;;2.78;;
65706;SDS011;52423;43.512;5.220;2022-08-30T08:19:40;8.85;;;2.35;;
65706;SDS011;52423;43.512;5.220;2022-08-30T08:22:06;7.47;;;2.35;;
65706;SDS011;52423;43.512;5.220;2022-08-30T08:24:32;6.05;;;2.50;;
65706;SDS011;52423;43.512;5.220;2022-08-30T08:26:57;8.98;;;2.53;;
65706;SDS011;52423;43.512;5.220;2022-08-30T08:29:23;7.22;;;2.30;;
65706;SDS011;52423;43.512;5.220;2022-08-30T08:31:49;7.80;;;2.47;;
65706;SDS011;52423;43.512;5.220;2022-08-30T08:34:14;6.18;;;2.45;;
65706;SDS011;52423;43.512;5.220;2022-08-30T08:36:43;6.25;;;2.17;;
65706;SDS011;52423;43.512;5.220;2022-08-30T08:39:08;7.72;;;2.22;;
65706;SDS011;52423;43.512;5.220;2022-08-30T08:41:37;8.73;;;2.20;;
65706;SDS011;52423;43.512;5.220;2022-08-30T08:44:41;6.75;;;2.25;;
65706;SDS011;52423;43.512;5.220;2022-08-30T08:49:52;5.43;;;2.00;;
65706;SDS011;52423;43.512;5.220;2022-08-30T08:52:26;7.82;;;1.75;;
65706;SDS011;52423;43.512;5.220;2022-08-30T08:55:15;7.65;;;2.00;;
65706;SDS011;52423;43.512;5.220;2022-08-30T08:57:44;5.68;;;1.70;;
65706;SDS011;52423;43.512;5.220;2022-08-30T09:00:13;8.88;;;2.17;;
65706;SDS011;52423;43.512;5.220;2022-08-30T09:05:10;6.32;;;2.25;;
65706;SDS011;52423;43.512;5.220;2022-08-30T09:07:41;2.90;;;1.70;;
65706;SDS011;52423;43.512;5.220;2022-08-30T09:10:13;4.82;;;2.10;;
65706;SDS011;52423;43.512;5.220;2022-08-30T09:12:39;4.22;;;1.80;;
65706;SDS011;52423;43.512;5.220;2022-08-30T09:15:09;4.35;;;1.80;;
65706;SDS011;52423;43.512;5.220;2022-08-30T09:18:00;6.85;;;2.50;;
65706;SDS011;52423;43.512;5.220;2022-08-30T09:26:04;5.30;;;2.50;;
65706;SDS011;52423;43.512;5.220;2022-08-30T09:28:32;8.70;;;1.77;;
65706;SDS011;52423;43.512;5.220;2022-08-30T09:31:04;2.97;;;2.00;;
65706;SDS011;52423;43.512;5.220;2022-08-30T09:33:59;6.40;;;2.40;;
65706;SDS011;52423;43.512;5.220;2022-08-30T09:36:31;5.07;;;2.00;;
65706;SDS011;52423;43.512;5.220;2022-08-30T09:39:18;4.90;;;1.88;;
65706;SDS011;52423;43.512;5.220;2022-08-30T09:41:48;3.72;;;2.13;;
65706;SDS011;52423;43.512;5.220;2022-08-30T09:44:19;7.68;;;2.10;;
65706;SDS011;52423;43.512;5.220;2022-08-30T09:49:28;6.13;;;1.77;;
65706;SDS011;52423;43.512;5.220;2022-08-30T10:00:25;4.00;;;1.90;;
65706;SDS011;52423;43.512;5.220;2022-08-30T10:09:02;3.25;;;1.75;;
65706;SDS011;52423;43.512;5.220;2022-08-30T10:11:52;6.43;;;1.95;;
65706;SDS011;52423;43.512;5.220;2022-08-30T10:14:33;4.63;;;1.90;;
65706;SDS011;52423;43.512;5.220;2022-08-30T10:17:11;4.60;;;1.98;;
65706;SDS011;52423;43.512;5.220;2022-08-30T10:20:17;3.45;;;2.05;;
65706;SDS011;52423;43.512;5.220;2022-08-30T10:23:00;7.53;;;1.77;;
65706;SDS011;52423;43.512;5.220;2022-08-30T10:25:42;4.38;;;2.25;;
65706;SDS011;52423;43.512;5.220;2022-08-30T10:28:14;5.05;;;2.10;;
65706;SDS011;52423;43.512;5.220;2022-08-30T10:30:47;8.02;;;1.90;;
65706;SDS011;52423;43.512;5.220;2022-08-30T10:33:22;5.20;;;1.70;;
65706;SDS011;52423;43.512;5.220;2022-08-30T10:35:54;4.53;;;2.03;;
65706;SDS011;52423;43.512;5.220;2022-08-30T10:38:26;7.13;;;1.88;;
65706;SDS011;52423;43.512;5.220;2022-08-30T10:44:07;3.08;;;1.85;;
65706;SDS011;52423;43.512;5.220;2022-08-30T10:49:43;4.45;;;2.00;;
65706;SDS011;52423;43.512;5.220;2022-08-30T10:57:15;6.82;;;1.77;;
65706;SDS011;52423;43.512;5.220;2022-08-30T10:59:52;4.13;;;1.73;;
65706;SDS011;52423;43.512;5.220;2022-08-30T11:02:30;4.05;;;1.92;;
65706;SDS011;52423;43.512;5.220;2022-08-30T11:08:27;4.40;;;1.95;;
65706;SDS011;52423;43.512;5.220;2022-08-30T11:11:01;5.40;;;2.00;;
65706;SDS011;52423;43.512;5.220;2022-08-30T11:13:37;4.03;;;2.05;;
65706;SDS011;52423;43.512;5.220;2022-08-30T11:16:09;5.97;;;1.63;;
65706;SDS011;52423;43.512;5.220;2022-08-30T11:18:41;2.97;;;1.80;;
65706;SDS011;52423;43.512;5.220;2022-08-30T11:24:01;3.13;;;1.70;;
65706;SDS011;52423;43.512;5.220;2022-08-30T11:26:54;5.90;;;1.80;;
65706;SDS011;52423;43.512;5.220;2022-08-30T11:31:50;4.47;;;2.00;;
65706;SDS011;52423;43.512;5.220;2022-08-30T11:34:52;4.22;;;1.98;;
65706;SDS011;52423;43.512;5.220;2022-08-30T11:39:56;5.03;;;2.10;;
65706;SDS011;52423;43.512;5.220;2022-08-30T11:42:43;3.33;;;1.88;;
65706;SDS011;52423;43.512;5.220;2022-08-30T11:47:55;3.75;;;2.20;;
65706;SDS011;52423;43.512;5.220;2022-08-30T11:50:37;5.97;;;2.08;;
65706;SDS011;52423;43.512;5.220;2022-08-30T11:56:19;2.95;;;1.70;;
65706;SDS011;52423;43.512;5.220;2022-08-30T11:58:53;4.50;;;1.90;;
65706;SDS011;52423;43.512;5.220;2022-08-30T12:04:00;4.47;;;1.90;;
65706;SDS011;52423;43.512;5.220;2022-08-30T12:12:00;9.63;;;2.00;;
65706;SDS011;52423;43.512;5.220;2022-08-30T12:20:03;4.95;;;2.38;;
65706;SDS011;52423;43.512;5.220;2022-08-30T12:22:35;9.18;;;2.95;;
65706;SDS011;52423;43.512;5.220;2022-08-30T12:25:03;6.15;;;2.60;;
65706;SDS011;52423;43.512;5.220;2022-08-30T12:27:41;3.60;;;2.10;;
65706;SDS011;52423;43.512;5.220;2022-08-30T12:30:07;6.80;;;3.13;;
65706;SDS011;52423;43.512;5.220;2022-08-30T12:32:36;9.73;;;2.92;;
65706;SDS011;52423;43.512;5.220;2022-08-30T12:35:16;6.32;;;2.10;;
65706;SDS011;52423;43.512;5.220;2022-08-30T12:37:52;7.85;;;2.00;;
65706;SDS011;52423;43.512;5.220;2022-08-30T12:40:25;5.95;;;2.42;;
65706;SDS011;52423;43.512;5.220;2022-08-30T12:43:01;4.65;;;2.05;;
65706;SDS011;52423;43.512;5.220;2022-08-30T12:45:31;5.07;;;2.15;;
65706;SDS011;52423;43.512;5.220;2022-08-30T12:48:03;7.47;;;2.13;;
65706;SDS011;52423;43.512;5.220;2022-08-30T12:50:36;6.55;;;2.40;;
65706;SDS011;52423;43.512;5.220;2022-08-30T12:53:10;6.50;;;2.22;;
65706;SDS011;52423;43.512;5.220;2022-08-30T13:03:57;6.45;;;1.90;;
65706;SDS011;52423;43.512;5.220;2022-08-30T13:06:49;8.60;;;2.45;;
65706;SDS011;52423;43.512;5.220;2022-08-30T13:09:28;5.50;;;2.20;;
65706;SDS011;52423;43.512;5.220;2022-08-30T13:12:07;5.10;;;2.10;;
65706;SDS011;52423;43.512;5.220;2022-08-30T13:17:18;5.28;;;2.60;;
65706;SDS011;52423;43.512;5.220;2022-08-30T13:19:58;4.63;;;2.28;;
65706;SDS011;52423;43.512;5.220;2022-08-30T13:25:00;6.00;;;2.67;;
65706;SDS011;52423;43.512;5.220;2022-08-30T13:27:28;6.38;;;2.03;;
65706;SDS011;52423;43.512;5.220;2022-08-30T13:29:55;5.07;;;2.30;;
65706;SDS011;52423;43.512;5.220;2022-08-30T13:32:21;5.05;;;2.25;;
65706;SDS011;52423;43.512;5.220;2022-08-30T13:34:47;4.07;;;2.20;;
65706;SDS011;52423;43.512;5.220;2022-08-30T13:37:14;6.63;;;2.20;;
65706;SDS011;52423;43.512;5.220;2022-08-30T13:39:43;4.22;;;2.17;;
65706;SDS011;52423;43.512;5.220;2022-08-30T13:42:09;7.25;;;2.03;;
65706;SDS011;52423;43.512;5.220;2022-08-30T13:44:35;7.53;;;2.15;;
65706;SDS011;52423;43.512;5.220;2022-08-30T13:47:01;5.82;;;2.08;;
65706;SDS011;52423;43.512;5.220;2022-08-30T13:49:29;4.18;;;2.78;;
65706;SDS011;52423;43.512;5.220;2022-08-30T13:51:57;4.53;;;1.98;;
65706;SDS011;52423;43.512;5.220;2022-08-30T13:54:23;3.28;;;1.98;;
65706;SDS011;52423;43.512;5.220;2022-08-30T13:56:49;3.95;;;2.00;;
65706;SDS011;52423;43.512;5.220;2022-08-30T13:59:17;3.47;;;2.17;;
65706;SDS011;52423;43.512;5.220;2022-08-30T14:01:43;5.53;;;2.13;;
65706;SDS011;52423;43.512;5.220;2022-08-30T14:04:10;9.90;;;2.22;;
65706;SDS011;52423;43.512;5.220;2022-08-30T14:06:36;6.20;;;2.20;;
65706;SDS011;52423;43.512;5.220;2022-08-30T14:09:02;3.75;;;2.10;;
65706;SDS011;52423;43.512;5.220;2022-08-30T14:11:31;7.38;;;2.47;;
65706;SDS011;52423;43.512;5.220;2022-08-30T14:13:57;3.45;;;2.33;;
65706;SDS011;52423;43.512;5.220;2022-08-30T14:16:23;2.45;;;1.67;;
65706;SDS011;52423;43.512;5.220;2022-08-30T14:18:49;6.35;;;1.98;;
65706;SDS011;52423;43.512;5.220;2022-08-30T14:21:16;2.70;;;2.10;;
65706;SDS011;52423;43.512;5.220;2022-08-30T14:23:42;6.13;;;2.55;;
65706;SDS011;52423;43.512;5.220;2022-08-30T14:26:50;5.40;;;2.15;;
65706;SDS011;52423;43.512;5.220;2022-08-30T14:29:02;7.03;;;2.30;;
65706;SDS011;52423;43.512;5.220;2022-08-30T14:31:30;6.22;;;2.60;;
65706;SDS011;52423;43.512;5.220;2022-08-30T14:33:56;4.05;;;2.20;;
65706;SDS011;52423;43.512;5.220;2022-08-30T14:36:22;4.05;;;2.13;;
65706;SDS011;52423;43.512;5.220;2022-08-30T14:38:49;6.50;;;2.17;;
65706;SDS011;52423;43.512;5.220;2022-08-30T14:41:14;9.68;;;3.08;;
65706;SDS011;52423;43.512;5.220;2022-08-30T14:43:40;9.13;;;2.47;;
65706;SDS011;52423;43.512;5.220;2022-08-30T14:46:06;5.88;;;2.28;;
65706;SDS011;52423;43.512;5.220;2022-08-30T14:48:34;4.47;;;2.20;;
65706;SDS011;52423;43.512;5.220;2022-08-30T14:51:01;5.00;;;2.00;;
65706;SDS011;52423;43.512;5.220;2022-08-30T14:53:27;4.72;;;2.38;;
65706;SDS011;52423;43.512;5.220;2022-08-30T14:55:52;6.15;;;2.50;;
65706;SDS011;52423;43.512;5.220;2022-08-30T14:58:18;4.35;;;2.17;;
65706;SDS011;52423;43.512;5.220;2022-08-30T15:00:50;3.22;;;2.00;;
65706;SDS011;52423;43.512;5.220;2022-08-30T15:03:17;3.00;;;2.00;;
65706;SDS011;52423;43.512;5.220;2022-08-30T15:05:47;4.68;;;2.13;;
65706;SDS011;52423;43.512;5.220;2022-08-30T15:08:14;3.45;;;2.42;;
65706;SDS011;52423;43.512;5.220;2022-08-30T15:10:39;3.00;;;1.92;;
65706;SDS011;52423;43.512;5.220;2022-08-30T15:13:05;6.88;;;2.10;;
65706;SDS011;52423;43.512;5.220;2022-08-30T15:15:32;8.32;;;3.13;;
65706;SDS011;52423;43.512;5.220;2022-08-30T15:17:57;6.93;;;3.28;;
65706;SDS011;52423;43.512;5.220;2022-08-30T15:20:23;6.10;;;2.03;;
65706;SDS011;52423;43.512;5.220;2022-08-30T15:22:49;5.07;;;2.08;;
65706;SDS011;52423;43.512;5.220;2022-08-30T15:25:15;3.63;;;2.10;;
65706;SDS011;52423;43.512;5.220;2022-08-30T15:27:41;8.43;;;2.88;;
65706;SDS011;52423;43.512;5.220;2022-08-30T15:30:07;3.60;;;2.10;;
65706;SDS011;52423;43.512;5.220;2022-08-30T15:32:33;4.30;;;2.55;;
65706;SDS011;52423;43.512;5.220;2022-08-30T15:34:59;3.28;;;1.92;;
65706;SDS011;52423;43.512;5.220;2022-08-30T15:37:25;5.68;;;2.20;;
65706;SDS011;52423;43.512;5.220;2022-08-30T15:39:51;3.17;;;2.03;;
65706;SDS011;52423;43.512;5.220;2022-08-30T15:42:18;4.70;;;2.47;;
65706;SDS011;52423;43.512;5.220;2022-08-30T15:44:53;5.50;;;2.08;;
65706;SDS011;52423;43.512;5.220;2022-08-30T15:47:20;3.88;;;2.17;;
65706;SDS011;52423;43.512;5.220;2022-08-30T15:49:58;3.47;;;1.85;;
65706;SDS011;52423;43.512;5.220;2022-08-30T15:52:28;4.20;;;2.58;;
65706;SDS011;52423;43.512;5.220;2022-08-30T15:54:54;5.63;;;2.28;;
65706;SDS011;52423;43.512;5.220;2022-08-30T15:57:21;3.80;;;2.40;;
65706;SDS011;52423;43.512;5.220;2022-08-30T15:59:47;3.58;;;2.13;;
65706;SDS011;52423;43.512;5.220;2022-08-30T16:02:13;3.65;;;2.20;;
65706;SDS011;52423;43.512;5.220;2022-08-30T16:04:39;7.15;;;2.25;;
65706;SDS011;52423;43.512;5.220;2022-08-30T16:07:05;6.28;;;2.03;;
65706;SDS011;52423;43.512;5.220;2022-08-30T16:09:34;6.25;;;2.28;;
65706;SDS011;52423;43.512;5.220;2022-08-30T16:12:02;5.03;;;2.50;;
65706;SDS011;52423;43.512;5.220;2022-08-30T16:14:29;2.53;;;1.73;;
65706;SDS011;52423;43.512;5.220;2022-08-30T16:16:55;5.80;;;2.60;;
65706;SDS011;52423;43.512;5.220;2022-08-30T16:19:21;7.50;;;2.70;;
65706;SDS011;52423;43.512;5.220;2022-08-30T16:21:47;4.95;;;2.30;;
65706;SDS011;52423;43.512;5.220;2022-08-30T16:24:13;6.85;;;2.63;;
65706;SDS011;52423;43.512;5.220;2022-08-30T16:26:40;11.07;;;2.78;;